(°C)
(°C)
جنوب
SE
ESE
ENE
ENE
ENE
NE
(كم/سا)
2-6
2-6
3-6
3-6
4-6
5-7
5-5
(مم)
0
0
0
0
0
0
0
(%)
0
0
0
0
0
0
0

مستوى ارتفاع الشمس

/ -27.6°
sun-icon
UV 2
07:11
18:01
قمر الصباح (144°)
17:16
03:17

متر لIvanka pri Dunaji (LZIB)

الوقت الشروط درجة الحرارة/
نقطة الندى
رياح مجال رؤية حالة الطقس غيوم الضغط تغيير خام
VFR 8°C / 5°C 350º 3kt >10km - Clouds and Visibility OK 1022 - LZIB 171830Z 35003KT CAVOK 08/05 Q1022
VFR 7°C / 4°C 30º 4kt >10km - Clouds and Visibility OK 1022 No Significant change LZIB 171800Z 03004KT CAVOK 07/04 Q1022 NOSIG
VFR 8°C / 4°C 360º 2kt >10km - Clouds and Visibility OK 1022 No Significant change LZIB 171730Z 36002KT CAVOK 08/04 Q1022 NOSIG
VFR 10°C / 5°C 330º 4kt >10km - Clouds and Visibility OK 1022 No Significant change LZIB 171700Z 33004KT CAVOK 10/05 Q1022 NOSIG
VFR 11°C / 5°C 170º 2kt >10km - Clouds and Visibility OK 1021 No Significant change LZIB 171630Z 17002KT CAVOK 11/05 Q1021 NOSIG
VFR 11°C / 5°C 170º 3kt >10km - Clouds and Visibility OK 1021 No Significant change LZIB 171600Z 17003KT CAVOK 11/05 Q1021 NOSIG
VFR 12°C / 5°C 190º 3kt >10km - Clouds and Visibility OK 1021 No Significant change LZIB 171530Z 19003KT CAVOK 12/05 Q1021 NOSIG
VFR 14°C / 5°C 200º variable 160º to 220º 3kt >10km - Few Clouds 4200ft 1021 No Significant change LZIB 171500Z 20003KT 160V220 9999 FEW042 14/05 Q1021 NOSIG
VFR 14°C / 4°C 210º variable 160º to 250º 4kt >10km - Few Clouds 4200ft 1021 No Significant change LZIB 171430Z 21004KT 160V250 9999 FEW042 14/04 Q1021 NOSIG
VFR 14°C / 3°C 220º variable 180º to 260º 3kt >10km - Few Clouds 4200ft 1021 No Significant change LZIB 171400Z 22003KT 180V260 9999 FEW042 14/03 Q1021 NOSIG
VFR 14°C / 4°C 150º variable 110º to 190º 5kt >10km - Few Clouds 4000ft 1021 No Significant change LZIB 171330Z 15005KT 110V190 9999 FEW040 14/04 Q1021 NOSIG
VFR 14°C / 4°C 170º variable 130º to 280º 4kt >10km - Few Clouds 3600ft 1021 No Significant change LZIB 171300Z 17004KT 130V280 9999 FEW036 14/04 Q1021 NOSIG
VFR 14°C / 4°C 180º variable 120º to 270º 3kt >10km - Few Clouds 3600ft 1022 No Significant change LZIB 171230Z 18003KT 120V270 9999 FEW036 14/04 Q1022 NOSIG
VFR 13°C / 4°C variable 2kt >10km - Few Clouds 3300ft 1022 No Significant change LZIB 171200Z VRB02KT 9999 FEW033 13/04 Q1022 NOSIG
VFR 13°C / 5°C variable 3kt >10km - Few Clouds 3000ft 1022 No Significant change LZIB 171130Z VRB03KT 9999 FEW030 13/05 Q1022 NOSIG
VFR 12°C / 5°C variable 2kt >10km - Few Clouds 2600ft 1022 No Significant change LZIB 171100Z VRB02KT 9999 FEW026 12/05 Q1022 NOSIG
VFR 11°C / 4°C variable 2kt >10km - Few Clouds 2400ft 1023 No Significant change LZIB 171030Z VRB02KT 9999 FEW024 11/04 Q1023 NOSIG
VFR 11°C / 5°C 110º variable 050º to 170º 3kt >10km - Few Clouds 2400ft 1023 No Significant change LZIB 171000Z 11003KT 050V170 9999 FEW024 11/05 Q1023 NOSIG
VFR 10°C / 4°C 100º variable 040º to 140º 3kt >10km - Clouds and Visibility OK 1023 No Significant change LZIB 170930Z 10003KT 040V140 CAVOK 10/04 Q1023 NOSIG
VFR 9°C / 4°C 100º variable 050º to 150º 3kt >10km - Clouds and Visibility OK 1023 No Significant change LZIB 170900Z 10003KT 050V150 CAVOK 09/04 Q1023 NOSIG
VFR 8°C / 3°C 80º variable 030º to 130º 3kt >10km - Clouds and Visibility OK 1023 No Significant change LZIB 170830Z 08003KT 030V130 CAVOK 08/03 Q1023 NOSIG
VFR 7°C / 3°C 60º 4kt >10km - Clouds and Visibility OK 1023 No Significant change LZIB 170800Z 06004KT CAVOK 07/03 Q1023 NOSIG
VFR 6°C / 3°C 70º variable 040º to 100º 3kt >10km - Clouds and Visibility OK 1023 No Significant change LZIB 170730Z 07003KT 040V100 CAVOK 06/03 Q1023 NOSIG
VFR 5°C / 3°C variable 1kt >10km - Clouds and Visibility OK 1023 No Significant change LZIB 170700Z VRB01KT CAVOK 05/03 Q1023 NOSIG

VFR

8°C / 5°C

[أكثر]
رياح 350º 3kt
مجال رؤية >10km
حالة الطقس -
غيوم Clouds and Visibility OK
الضغط 1022
تغيير -
خام LZIB 171830Z 35003KT CAVOK 08/05 Q1022

VFR

7°C / 4°C

[أكثر]
رياح 30º 4kt
مجال رؤية >10km
حالة الطقس -
غيوم Clouds and Visibility OK
الضغط 1022
تغيير No Significant change
خام LZIB 171800Z 03004KT CAVOK 07/04 Q1022 NOSIG

VFR

8°C / 4°C

[أكثر]
رياح 360º 2kt
مجال رؤية >10km
حالة الطقس -
غيوم Clouds and Visibility OK
الضغط 1022
تغيير No Significant change
خام LZIB 171730Z 36002KT CAVOK 08/04 Q1022 NOSIG

VFR

10°C / 5°C

[أكثر]
رياح 330º 4kt
مجال رؤية >10km
حالة الطقس -
غيوم Clouds and Visibility OK
الضغط 1022
تغيير No Significant change
خام LZIB 171700Z 33004KT CAVOK 10/05 Q1022 NOSIG

VFR

11°C / 5°C

[أكثر]
رياح 170º 2kt
مجال رؤية >10km
حالة الطقس -
غيوم Clouds and Visibility OK
الضغط 1021
تغيير No Significant change
خام LZIB 171630Z 17002KT CAVOK 11/05 Q1021 NOSIG

VFR

11°C / 5°C

[أكثر]
رياح 170º 3kt
مجال رؤية >10km
حالة الطقس -
غيوم Clouds and Visibility OK
الضغط 1021
تغيير No Significant change
خام LZIB 171600Z 17003KT CAVOK 11/05 Q1021 NOSIG

VFR

12°C / 5°C

[أكثر]
رياح 190º 3kt
مجال رؤية >10km
حالة الطقس -
غيوم Clouds and Visibility OK
الضغط 1021
تغيير No Significant change
خام LZIB 171530Z 19003KT CAVOK 12/05 Q1021 NOSIG

VFR

14°C / 5°C

[أكثر]
رياح 200º variable 160º to 220º 3kt
مجال رؤية >10km
حالة الطقس -
غيوم Few Clouds 4200ft
الضغط 1021
تغيير No Significant change
خام LZIB 171500Z 20003KT 160V220 9999 FEW042 14/05 Q1021 NOSIG

VFR

14°C / 4°C

[أكثر]
رياح 210º variable 160º to 250º 4kt
مجال رؤية >10km
حالة الطقس -
غيوم Few Clouds 4200ft
الضغط 1021
تغيير No Significant change
خام LZIB 171430Z 21004KT 160V250 9999 FEW042 14/04 Q1021 NOSIG

VFR

14°C / 3°C

[أكثر]
رياح 220º variable 180º to 260º 3kt
مجال رؤية >10km
حالة الطقس -
غيوم Few Clouds 4200ft
الضغط 1021
تغيير No Significant change
خام LZIB 171400Z 22003KT 180V260 9999 FEW042 14/03 Q1021 NOSIG

VFR

14°C / 4°C

[أكثر]
رياح 150º variable 110º to 190º 5kt
مجال رؤية >10km
حالة الطقس -
غيوم Few Clouds 4000ft
الضغط 1021
تغيير No Significant change
خام LZIB 171330Z 15005KT 110V190 9999 FEW040 14/04 Q1021 NOSIG

VFR

14°C / 4°C

[أكثر]
رياح 170º variable 130º to 280º 4kt
مجال رؤية >10km
حالة الطقس -
غيوم Few Clouds 3600ft
الضغط 1021
تغيير No Significant change
خام LZIB 171300Z 17004KT 130V280 9999 FEW036 14/04 Q1021 NOSIG

VFR

14°C / 4°C

[أكثر]
رياح 180º variable 120º to 270º 3kt
مجال رؤية >10km
حالة الطقس -
غيوم Few Clouds 3600ft
الضغط 1022
تغيير No Significant change
خام LZIB 171230Z 18003KT 120V270 9999 FEW036 14/04 Q1022 NOSIG

VFR

13°C / 4°C

[أكثر]
رياح variable 2kt
مجال رؤية >10km
حالة الطقس -
غيوم Few Clouds 3300ft
الضغط 1022
تغيير No Significant change
خام LZIB 171200Z VRB02KT 9999 FEW033 13/04 Q1022 NOSIG

VFR

13°C / 5°C

[أكثر]
رياح variable 3kt
مجال رؤية >10km
حالة الطقس -
غيوم Few Clouds 3000ft
الضغط 1022
تغيير No Significant change
خام LZIB 171130Z VRB03KT 9999 FEW030 13/05 Q1022 NOSIG

VFR

12°C / 5°C

[أكثر]
رياح variable 2kt
مجال رؤية >10km
حالة الطقس -
غيوم Few Clouds 2600ft
الضغط 1022
تغيير No Significant change
خام LZIB 171100Z VRB02KT 9999 FEW026 12/05 Q1022 NOSIG

VFR

11°C / 4°C

[أكثر]
رياح variable 2kt
مجال رؤية >10km
حالة الطقس -
غيوم Few Clouds 2400ft
الضغط 1023
تغيير No Significant change
خام LZIB 171030Z VRB02KT 9999 FEW024 11/04 Q1023 NOSIG

VFR

11°C / 5°C

[أكثر]
رياح 110º variable 050º to 170º 3kt
مجال رؤية >10km
حالة الطقس -
غيوم Few Clouds 2400ft
الضغط 1023
تغيير No Significant change
خام LZIB 171000Z 11003KT 050V170 9999 FEW024 11/05 Q1023 NOSIG

VFR

10°C / 4°C

[أكثر]
رياح 100º variable 040º to 140º 3kt
مجال رؤية >10km
حالة الطقس -
غيوم Clouds and Visibility OK
الضغط 1023
تغيير No Significant change
خام LZIB 170930Z 10003KT 040V140 CAVOK 10/04 Q1023 NOSIG

VFR

9°C / 4°C

[أكثر]
رياح 100º variable 050º to 150º 3kt
مجال رؤية >10km
حالة الطقس -
غيوم Clouds and Visibility OK
الضغط 1023
تغيير No Significant change
خام LZIB 170900Z 10003KT 050V150 CAVOK 09/04 Q1023 NOSIG

VFR

8°C / 3°C

[أكثر]
رياح 80º variable 030º to 130º 3kt
مجال رؤية >10km
حالة الطقس -
غيوم Clouds and Visibility OK
الضغط 1023
تغيير No Significant change
خام LZIB 170830Z 08003KT 030V130 CAVOK 08/03 Q1023 NOSIG

VFR

7°C / 3°C

[أكثر]
رياح 60º 4kt
مجال رؤية >10km
حالة الطقس -
غيوم Clouds and Visibility OK
الضغط 1023
تغيير No Significant change
خام LZIB 170800Z 06004KT CAVOK 07/03 Q1023 NOSIG

VFR

6°C / 3°C

[أكثر]
رياح 70º variable 040º to 100º 3kt
مجال رؤية >10km
حالة الطقس -
غيوم Clouds and Visibility OK
الضغط 1023
تغيير No Significant change
خام LZIB 170730Z 07003KT 040V100 CAVOK 06/03 Q1023 NOSIG

VFR

5°C / 3°C

[أكثر]
رياح variable 1kt
مجال رؤية >10km
حالة الطقس -
غيوم Clouds and Visibility OK
الضغط 1023
تغيير No Significant change
خام LZIB 170700Z VRB01KT CAVOK 05/03 Q1023 NOSIG

انقر لIvanka pri Dunaji (LZIB)

From till


From till Wind variable 2kt. Visibility 10km or more. Nil Significant Cloud.
With 30% probability, Temporarly from till Visibility 2500m. Mist . Few Clouds 1000ft.
Becoming from till Wind 320º 6kt. Visibility 10km or more. Nil Significant Cloud.

خام: TAF LZIB 171700Z 1718/1818 VRB02KT CAVOK PROB30 TEMPO 1800/1806 2500 BR FEW010 BECMG 1810/1812 32006KT

صور الأقمار الصناعية الملتقطة و الأمطار حالياً لIvanka pri Dunaji, سلوفاكيا

المؤشر يدل على موقع Ivanka pri Dunaji. [أكثر]

تجمع صورة الأقمار الصناعية في الوقت الفعلي بين الضوء المرئي أثناء النهار والأشعة تحت الحمراء أثناء الليل. لا تبدو الصورة مظلمة ليلاً، لأن الأشعة تحت الحمراء يمكنها الكشف عن الاختلافات في درجة الحرارة. لسوء الحظ ، يصعب التمييز بين السحب المنخفضة والضباب ودرجات حرارة الأرض ، وبالتالي يمكن أن تكون الصور غير مرئية تقريبًا أثناء الليل. يتم تحديث صور الأقمار الصناعية Meteosat الخاصة بأوروبا في الوقت الفعلي كل 5 دقائق، بينما يتم تحديث صور GOES-16 / GOES-17 (أمريكا الشمالية والجنوبية) و Himawari (آسيا) كل 10 دقائق.

يقدر هطول الأمطار من الرادار والأقمار الصناعية. تقديرات هطول الأمطار ليلا من قبل الأقمار الصناعية هي أقل دقة من النهار. اللون البرتقالي يعبر الأماكن حيث تم الكشف عن البرق (أكثر من أوروبا).

حقوق النسخ 2021 EUMETSAT / meteoblue. بيانات البرق مقدمة من nowcast.

رادار وهطول الأمطار التنبؤ الآني لIvanka pri Dunaji

رذاذ
ضوء
معتدل
ثقيل
ثقيل جدا
وابل

مؤشر المكان يشير الى Ivanka pri Dunaji. تظهر في هذه الرسوم المتحركة هطول الامطار بالرادار للساعة الماضية, و توقعات 1h. رذاذ أو تساقط ثلوج خفيف قد يكون غير مرئي للرادار. كثافة هطول الأمطار مرمزة بالألوان وتتراوح من الأزرق الفاتح إلى البرتقالي.